createdAt,value
2023-03-06T00:01:10.968Z,31.67
2023-03-06T00:03:37.501Z,31.31
2023-03-06T00:06:04.076Z,32.96
2023-03-06T00:08:30.547Z,33.57
2023-03-06T00:10:56.958Z,32.67
2023-03-06T00:13:23.385Z,33.07
2023-03-06T00:15:49.989Z,32.87
2023-03-06T00:18:16.457Z,34.92
2023-03-06T00:20:42.910Z,35.49
2023-03-06T00:23:09.327Z,36.34
2023-03-06T00:25:35.712Z,36.48
2023-03-06T00:28:02.161Z,35.99
2023-03-06T00:30:28.749Z,35.74
2023-03-06T00:32:55.213Z,36.08
2023-03-06T00:35:21.702Z,35.79
2023-03-06T00:37:48.125Z,35.71
2023-03-06T00:40:14.541Z,34.81
2023-03-06T00:42:40.986Z,35.42
2023-03-06T00:45:07.428Z,34.21
2023-03-06T00:47:33.918Z,34.05
2023-03-06T00:50:00.433Z,33.94
2023-03-06T00:52:26.886Z,34.55
2023-03-06T00:54:53.332Z,35.10
2023-03-06T00:57:19.957Z,35.15
2023-03-06T00:59:49.323Z,35.07
2023-03-06T01:02:15.838Z,34.51
2023-03-06T01:04:42.235Z,34.67
2023-03-06T01:07:08.709Z,36.35
2023-03-06T01:09:35.110Z,36.75
2023-03-06T01:12:01.548Z,37.89
2023-03-06T01:14:27.961Z,38.12
2023-03-06T01:16:54.403Z,37.68
2023-03-06T01:19:20.816Z,37.73
2023-03-06T01:21:47.275Z,37.06
2023-03-06T01:24:13.738Z,37.09
2023-03-06T01:26:40.200Z,37.12
2023-03-06T01:29:06.625Z,37.08
2023-03-06T01:31:33.163Z,36.43
2023-03-06T01:33:59.730Z,36.44
2023-03-06T01:36:26.198Z,38.86
2023-03-06T01:38:52.687Z,40.07
2023-03-06T01:41:19.154Z,39.86
2023-03-06T01:43:45.597Z,37.38
2023-03-06T01:46:12.070Z,36.67
2023-03-06T01:48:38.470Z,36.37
2023-03-06T01:51:04.845Z,37.28
2023-03-06T01:53:31.240Z,37.00
2023-03-06T01:55:57.686Z,36.49
2023-03-06T01:58:24.131Z,35.95
2023-03-06T02:00:50.553Z,37.42
2023-03-06T02:03:17.009Z,36.97
2023-03-06T02:05:43.404Z,36.60
2023-03-06T02:08:09.773Z,37.89
2023-03-06T02:10:36.202Z,36.76
2023-03-06T02:13:02.671Z,35.51
2023-03-06T02:15:29.106Z,36.18
2023-03-06T02:17:55.588Z,36.37
2023-03-06T02:20:22.018Z,34.68
2023-03-06T02:22:48.664Z,33.96
2023-03-06T02:25:15.180Z,34.49
2023-03-06T02:27:41.656Z,34.39
2023-03-06T02:30:08.159Z,34.45
2023-03-06T02:32:34.634Z,34.72
2023-03-06T02:35:01.141Z,32.68
2023-03-06T02:37:27.573Z,34.60
2023-03-06T02:39:54.024Z,35.71
2023-03-06T02:42:20.468Z,35.21
2023-03-06T02:44:46.924Z,35.33
2023-03-06T02:47:13.296Z,34.15
2023-03-06T02:49:39.721Z,34.65
2023-03-06T02:52:06.107Z,33.49
2023-03-06T02:54:32.537Z,34.28
2023-03-06T02:56:59.162Z,34.26
2023-03-06T02:59:25.575Z,33.96
2023-03-06T03:01:52.037Z,34.57
2023-03-06T03:04:18.527Z,35.16
2023-03-06T03:06:45.038Z,35.16
2023-03-06T03:09:11.413Z,34.99
2023-03-06T03:11:37.965Z,33.57
2023-03-06T03:14:04.390Z,32.09
2023-03-06T03:16:30.819Z,31.03
2023-03-06T03:18:57.266Z,30.45
2023-03-06T03:21:23.833Z,31.69
2023-03-06T03:23:50.320Z,33.37
2023-03-06T03:26:16.769Z,34.96
2023-03-06T03:28:43.227Z,36.66
2023-03-06T03:31:09.744Z,37.35
2023-03-06T03:33:36.479Z,36.54
2023-03-06T03:36:02.977Z,37.17
2023-03-06T03:38:29.421Z,37.08
2023-03-06T03:40:55.879Z,36.11
2023-03-06T03:43:22.320Z,37.08
2023-03-06T03:45:50.322Z,35.93
2023-03-06T03:48:16.744Z,35.48
2023-03-06T03:50:43.186Z,34.81
2023-03-06T03:53:09.681Z,34.62
2023-03-06T03:55:36.081Z,34.49
2023-03-06T03:58:02.511Z,33.82
2023-03-06T04:00:28.946Z,32.32
2023-03-06T04:02:55.365Z,33.13
2023-03-06T04:05:21.773Z,32.08
2023-03-06T04:07:48.123Z,32.27
2023-03-06T04:10:14.585Z,33.16
2023-03-06T04:12:41.016Z,32.86
2023-03-06T04:15:07.487Z,33.89
2023-03-06T04:17:33.991Z,32.88
2023-03-06T04:20:00.438Z,33.48
2023-03-06T04:22:26.867Z,34.29
2023-03-06T04:24:53.393Z,33.70
2023-03-06T04:27:20.021Z,33.80
2023-03-06T04:29:46.522Z,34.55
2023-03-06T04:32:13.018Z,34.64
2023-03-06T04:34:39.584Z,32.57
2023-03-06T04:37:06.018Z,32.76
2023-03-06T04:39:32.473Z,32.94
2023-03-06T04:41:58.936Z,33.35
2023-03-06T04:44:25.507Z,33.93
2023-03-06T04:46:51.949Z,33.95
2023-03-06T04:49:18.374Z,33.06
2023-03-06T04:51:44.779Z,32.73
2023-03-06T04:54:11.229Z,33.66
2023-03-06T04:56:37.754Z,33.14
2023-03-06T04:59:04.284Z,32.97
2023-03-06T05:01:30.665Z,34.34
2023-03-06T05:03:57.127Z,33.39
2023-03-06T05:06:25.691Z,33.35
2023-03-06T05:08:52.110Z,32.75
2023-03-06T05:11:18.549Z,32.12
2023-03-06T05:13:44.930Z,33.36
2023-03-06T05:16:11.434Z,31.73
2023-03-06T05:18:37.907Z,32.52
2023-03-06T05:21:04.347Z,32.72
2023-03-06T05:23:30.708Z,31.56
2023-03-06T05:25:57.141Z,32.35
2023-03-06T05:28:23.573Z,32.79
2023-03-06T05:30:50.107Z,31.95
2023-03-06T05:33:16.613Z,33.04
2023-03-06T05:35:43.066Z,32.96
2023-03-06T05:38:09.828Z,32.90
2023-03-06T05:40:36.644Z,33.27
2023-03-06T05:43:03.083Z,33.48
2023-03-06T05:45:29.540Z,33.51
2023-03-06T05:47:55.960Z,33.34
2023-03-06T05:50:22.388Z,33.73
2023-03-06T05:52:48.820Z,33.60
2023-03-06T05:55:15.230Z,34.40
2023-03-06T05:57:41.856Z,35.30
2023-03-06T06:00:08.265Z,35.31
2023-03-06T06:02:34.745Z,34.44
2023-03-06T06:05:01.220Z,34.59
2023-03-06T06:07:27.716Z,34.77
2023-03-06T06:09:54.177Z,35.86
2023-03-06T06:12:20.589Z,34.76
2023-03-06T06:14:46.958Z,35.13
2023-03-06T06:17:13.406Z,35.37
2023-03-06T06:19:39.876Z,35.12
2023-03-06T06:22:06.470Z,34.32
2023-03-06T06:24:32.951Z,32.80
2023-03-06T06:27:00.950Z,32.84
2023-03-06T06:29:29.029Z,33.76
2023-03-06T06:31:55.403Z,33.97
2023-03-06T06:34:21.766Z,33.63
2023-03-06T06:36:48.277Z,34.41
2023-03-06T06:39:14.847Z,34.71
2023-03-06T06:41:59.450Z,34.31
2023-03-06T06:44:27.681Z,34.91
2023-03-06T06:49:40.462Z,35.07
2023-03-06T06:52:06.911Z,35.13
2023-03-06T06:54:33.401Z,34.28
2023-03-06T06:56:59.924Z,32.47
2023-03-06T06:59:26.518Z,32.78
2023-03-06T07:01:53.164Z,33.98
2023-03-06T07:04:19.748Z,34.16
2023-03-06T07:06:46.278Z,33.88
2023-03-06T07:09:12.757Z,33.79
2023-03-06T07:11:39.168Z,34.86
2023-03-06T07:14:05.654Z,34.34
2023-03-06T07:16:32.316Z,34.82
2023-03-06T07:18:58.763Z,33.88
2023-03-06T07:21:25.234Z,34.23
2023-03-06T07:23:51.764Z,34.33
2023-03-06T07:26:18.219Z,34.35
2023-03-06T07:28:52.280Z,34.45
2023-03-06T07:31:19.261Z,33.90
2023-03-06T07:33:45.751Z,34.85
2023-03-06T07:36:13.788Z,34.09
2023-03-06T07:38:40.509Z,33.99
2023-03-06T07:41:10.091Z,33.29
2023-03-06T07:43:36.617Z,32.31
2023-03-06T07:46:03.060Z,30.28
2023-03-06T07:48:29.570Z,28.29
2023-03-06T07:50:56.011Z,25.84
2023-03-06T07:53:22.395Z,25.50
2023-03-06T07:55:48.973Z,26.36
2023-03-06T07:58:15.455Z,25.99
2023-03-06T08:00:41.871Z,26.48
2023-03-06T08:03:08.383Z,25.93
2023-03-06T08:05:34.841Z,25.91
2023-03-06T08:08:01.212Z,25.15
2023-03-06T08:10:27.584Z,26.06
2023-03-06T08:12:53.975Z,26.37
2023-03-06T08:15:20.346Z,27.10
2023-03-06T08:17:46.744Z,25.76
2023-03-06T08:20:13.196Z,25.95
2023-03-06T08:22:39.737Z,26.85
2023-03-06T08:25:06.175Z,26.60
2023-03-06T08:27:32.712Z,26.62
2023-03-06T08:29:59.116Z,26.96
2023-03-06T08:35:05.792Z,26.36
2023-03-06T08:37:34.497Z,27.08
2023-03-06T08:40:01.006Z,28.43
2023-03-06T08:42:27.499Z,27.99
2023-03-06T08:44:53.910Z,29.22
2023-03-06T08:47:20.290Z,29.71
2023-03-06T08:49:46.781Z,29.93
2023-03-06T08:52:13.197Z,33.75
2023-03-06T08:54:39.556Z,34.52
2023-03-06T08:57:06.100Z,31.79
2023-03-06T08:59:32.607Z,30.39
2023-03-06T09:01:59.072Z,30.41
2023-03-06T09:04:25.538Z,29.92
2023-03-06T09:06:53.134Z,29.16
2023-03-06T09:09:22.425Z,30.02
2023-03-06T09:11:48.830Z,30.15
2023-03-06T09:14:15.348Z,30.58
2023-03-06T09:16:41.797Z,31.02
2023-03-06T09:19:08.297Z,31.14
2023-03-06T09:21:34.768Z,36.79
2023-03-06T09:24:01.211Z,37.23
2023-03-06T09:26:39.645Z,40.40
2023-03-06T09:29:11.248Z,41.75
2023-03-06T09:31:37.736Z,40.04
2023-03-06T09:34:05.092Z,42.98
2023-03-06T09:36:31.516Z,43.69
2023-03-06T09:38:57.908Z,41.55
2023-03-06T09:41:24.403Z,39.03
2023-03-06T09:43:50.848Z,41.42
2023-03-06T09:46:17.263Z,44.33
2023-03-06T09:48:43.630Z,42.20
2023-03-06T09:51:10.021Z,43.34
2023-03-06T09:53:36.396Z,44.53
2023-03-06T09:56:02.760Z,43.57
2023-03-06T09:58:29.204Z,44.27
2023-03-06T10:00:55.584Z,44.88
2023-03-06T10:03:21.976Z,44.82
2023-03-06T10:05:48.392Z,44.01
2023-03-06T10:08:14.820Z,44.78
2023-03-06T10:10:41.188Z,43.41
2023-03-06T10:13:07.613Z,42.88
2023-03-06T10:15:34.181Z,42.06
2023-03-06T10:18:00.654Z,41.68
2023-03-06T10:20:27.089Z,41.51
2023-03-06T10:23:01.063Z,41.88
2023-03-06T10:25:30.544Z,41.42
2023-03-06T10:27:56.964Z,41.37
2023-03-06T10:30:23.425Z,42.34
2023-03-06T10:32:50.115Z,41.96
2023-03-06T10:35:16.537Z,40.95
2023-03-06T10:37:42.887Z,40.07
2023-03-06T10:40:09.476Z,41.02
2023-03-06T10:42:35.898Z,41.30
2023-03-06T10:45:02.512Z,41.14
2023-03-06T10:47:29.026Z,40.74
2023-03-06T10:49:55.468Z,41.67
2023-03-06T10:52:23.969Z,41.92
2023-03-06T10:54:50.389Z,44.03
2023-03-06T10:57:16.857Z,45.12
2023-03-06T10:59:43.278Z,43.95
2023-03-06T11:02:09.723Z,43.90
2023-03-06T11:04:36.395Z,43.90
2023-03-06T11:07:02.838Z,43.49
2023-03-06T11:09:29.215Z,43.16
2023-03-06T11:11:55.630Z,43.81
2023-03-06T11:14:22.007Z,43.24
2023-03-06T11:16:48.444Z,42.67
2023-03-06T11:19:14.802Z,42.35
2023-03-06T11:21:41.239Z,42.92
2023-03-06T11:24:07.728Z,42.88
2023-03-06T11:26:34.112Z,43.78
2023-03-06T11:29:00.614Z,44.89
2023-03-06T11:31:27.017Z,44.72
2023-03-06T11:33:53.614Z,44.12
2023-03-06T11:36:20.046Z,44.81
2023-03-06T11:38:46.396Z,44.69
2023-03-06T11:41:12.863Z,43.40
2023-03-06T11:43:39.234Z,44.01
2023-03-06T11:46:05.612Z,43.71
2023-03-06T11:48:32.081Z,44.23
2023-03-06T11:50:58.537Z,44.40
2023-03-06T11:53:24.917Z,43.19
2023-03-06T11:55:51.387Z,44.20
2023-03-06T11:58:17.746Z,43.72
2023-03-06T12:00:44.148Z,44.40
2023-03-06T12:03:10.528Z,45.63
2023-03-06T12:05:36.978Z,45.77
2023-03-06T12:08:03.512Z,45.45
2023-03-06T12:10:29.920Z,45.85
2023-03-06T12:12:57.487Z,45.02
2023-03-06T12:15:23.920Z,43.97
2023-03-06T12:17:50.332Z,44.14
2023-03-06T12:20:16.773Z,45.05
2023-03-06T12:22:44.364Z,44.85
2023-03-06T12:25:12.789Z,44.75
2023-03-06T12:27:39.168Z,44.77
2023-03-06T12:30:05.595Z,45.03
2023-03-06T12:32:32.039Z,46.99
2023-03-06T12:34:58.544Z,47.41
2023-03-06T12:37:24.964Z,46.65
2023-03-06T12:39:51.341Z,45.95
2023-03-06T12:42:23.086Z,45.34
2023-03-06T12:44:50.056Z,46.48
2023-03-06T12:47:16.480Z,44.59
2023-03-06T12:49:42.894Z,44.07
2023-03-06T12:52:09.828Z,45.05
2023-03-06T12:54:36.301Z,45.18
2023-03-06T12:57:02.745Z,45.23
2023-03-06T12:59:29.137Z,45.57
2023-03-06T13:01:55.562Z,45.36
2023-03-06T13:04:22.096Z,45.29
2023-03-06T13:06:50.719Z,45.91
2023-03-06T13:09:17.702Z,46.28
2023-03-06T13:11:44.119Z,44.57
2023-03-06T13:14:10.497Z,44.76
2023-03-06T13:16:36.926Z,44.73
2023-03-06T13:19:03.439Z,42.17
2023-03-06T13:21:29.893Z,43.24
2023-03-06T13:23:56.292Z,45.05
2023-03-06T13:26:22.704Z,45.38
2023-03-06T13:28:49.155Z,45.52
2023-03-06T13:31:27.031Z,44.75
2023-03-06T13:33:54.035Z,44.01
2023-03-06T13:36:20.383Z,44.42
2023-03-06T13:38:46.742Z,44.39
2023-03-06T13:41:13.204Z,44.35
2023-03-06T13:43:39.638Z,42.02
2023-03-06T13:46:06.074Z,44.39
2023-03-06T13:48:47.819Z,42.52
2023-03-06T13:51:14.316Z,28.88
2023-03-06T13:53:40.789Z,41.74
2023-03-06T13:56:07.311Z,41.19
2023-03-06T13:58:33.699Z,42.41
2023-03-06T14:01:00.072Z,42.56
2023-03-06T14:03:26.498Z,42.98
2023-03-06T14:05:52.864Z,43.51
2023-03-06T14:08:19.302Z,41.81
2023-03-06T14:10:45.730Z,42.95
2023-03-06T14:13:12.142Z,42.43
2023-03-06T14:15:38.591Z,37.59
2023-03-06T14:18:04.969Z,37.79
2023-03-06T14:20:31.409Z,37.64
2023-03-06T14:22:57.750Z,36.30
2023-03-06T14:25:24.108Z,35.63
2023-03-06T14:27:50.530Z,35.52
2023-03-06T14:30:16.946Z,30.67
2023-03-06T14:32:43.428Z,29.95
2023-03-06T14:35:09.881Z,29.93
2023-03-06T14:37:36.294Z,28.18
2023-03-06T14:40:02.662Z,29.30
2023-03-06T14:42:29.031Z,28.64
2023-03-06T14:44:55.507Z,27.66
2023-03-06T14:47:22.103Z,27.52
2023-03-06T14:49:48.553Z,27.88
2023-03-06T14:52:15.029Z,27.17
2023-03-06T14:54:41.428Z,27.60
2023-03-06T14:57:07.858Z,26.87
2023-03-06T14:59:34.385Z,25.95
2023-03-06T15:02:00.835Z,26.64
2023-03-06T15:04:27.322Z,23.38
2023-03-06T15:06:53.737Z,27.45
2023-03-06T15:09:20.118Z,28.70
2023-03-06T15:11:46.552Z,28.06
2023-03-06T15:14:12.972Z,27.78
2023-03-06T15:16:39.329Z,27.17
2023-03-06T15:19:05.732Z,27.49
2023-03-06T15:21:32.078Z,27.18
2023-03-06T15:23:58.551Z,28.54
2023-03-06T15:26:24.961Z,28.50
2023-03-06T15:28:54.284Z,26.93
2023-03-06T15:31:23.188Z,26.11
2023-03-06T15:33:49.538Z,27.20
2023-03-06T15:36:15.908Z,27.50
2023-03-06T15:38:42.292Z,27.66
2023-03-06T15:41:08.647Z,24.45
2023-03-06T15:43:35.024Z,21.80
2023-03-06T15:46:01.435Z,22.90
2023-03-06T15:48:27.785Z,22.35
2023-03-06T15:50:54.184Z,23.61
2023-03-06T15:53:20.722Z,22.61
2023-03-06T15:55:47.236Z,23.12
2023-03-06T15:58:13.642Z,19.47
2023-03-06T16:00:40.063Z,20.13
2023-03-06T16:03:06.498Z,20.68
2023-03-06T16:05:32.854Z,19.92
2023-03-06T16:07:59.276Z,20.11
2023-03-06T16:10:25.749Z,21.87
2023-03-06T16:12:52.158Z,22.68
2023-03-06T16:15:18.519Z,18.96
2023-03-06T16:17:44.945Z,18.75
2023-03-06T16:20:11.398Z,18.60
2023-03-06T16:22:37.776Z,22.64
2023-03-06T16:25:04.300Z,20.04
2023-03-06T16:27:30.693Z,19.14
2023-03-06T16:29:57.030Z,20.63
2023-03-06T16:32:23.490Z,23.90
2023-03-06T16:34:49.962Z,24.27
2023-03-06T16:37:16.354Z,24.19
2023-03-06T16:39:42.744Z,23.60
2023-03-06T16:42:09.092Z,23.73
2023-03-06T16:44:35.501Z,23.45
2023-03-06T16:47:01.947Z,21.72
2023-03-06T16:49:28.315Z,22.62
2023-03-06T16:51:54.678Z,23.13
2023-03-06T16:54:21.049Z,23.13
2023-03-06T16:56:47.464Z,23.99
2023-03-06T16:59:14.028Z,22.54
2023-03-06T17:01:40.460Z,22.08
2023-03-06T17:04:06.885Z,21.80
2023-03-06T17:06:33.320Z,21.85
2023-03-06T17:08:59.684Z,21.57
2023-03-06T17:11:26.088Z,21.91
2023-03-06T17:13:52.409Z,21.44
2023-03-06T17:16:18.844Z,21.40
2023-03-06T17:18:45.341Z,22.43
2023-03-06T17:21:11.716Z,23.06
2023-03-06T17:23:38.067Z,23.92
2023-03-06T17:26:04.459Z,22.44
2023-03-06T17:28:30.803Z,16.44
2023-03-06T17:30:57.221Z,15.34
2023-03-06T17:33:23.602Z,14.98
2023-03-06T17:35:50.147Z,14.98
2023-03-06T17:38:16.528Z,13.79
2023-03-06T17:40:42.904Z,14.76
2023-03-06T17:43:09.388Z,15.12
2023-03-06T17:45:35.862Z,15.09
2023-03-06T17:48:02.215Z,15.36
2023-03-06T17:50:28.645Z,15.31
2023-03-06T17:52:55.174Z,14.54
2023-03-06T17:55:21.557Z,14.79
2023-03-06T17:57:48.030Z,15.23
2023-03-06T18:00:14.491Z,15.68
2023-03-06T18:02:40.924Z,15.46
2023-03-06T18:05:07.403Z,15.38
2023-03-06T18:07:33.834Z,15.90
2023-03-06T18:10:00.228Z,16.41
2023-03-06T18:12:26.637Z,15.77
2023-03-06T18:14:53.045Z,15.87
2023-03-06T18:17:19.580Z,15.70
2023-03-06T18:19:45.935Z,17.44
2023-03-06T18:22:12.331Z,18.93
2023-03-06T18:24:38.686Z,18.99
2023-03-06T18:27:05.117Z,19.00
2023-03-06T18:29:31.577Z,22.45
2023-03-06T18:31:58.042Z,22.48
2023-03-06T18:34:24.487Z,21.21
2023-03-06T18:36:50.861Z,20.11
2023-03-06T18:39:17.286Z,18.72
2023-03-06T18:41:43.733Z,18.98
2023-03-06T18:44:10.161Z,16.46
2023-03-06T18:46:36.530Z,17.32
2023-03-06T18:49:02.923Z,15.41
2023-03-06T18:51:29.344Z,16.05
2023-03-06T18:53:55.678Z,15.99
2023-03-06T18:56:22.083Z,15.24
2023-03-06T18:58:48.639Z,14.67
2023-03-06T19:01:15.155Z,14.46
2023-03-06T19:03:41.580Z,15.03
2023-03-06T19:06:07.994Z,13.87
2023-03-06T19:08:34.435Z,11.53
2023-03-06T19:11:00.868Z,11.61
2023-03-06T19:13:27.250Z,11.67
2023-03-06T19:15:53.591Z,11.31
2023-03-06T19:18:20.007Z,11.55
2023-03-06T19:20:46.459Z,12.23
2023-03-06T19:23:12.848Z,11.04
2023-03-06T19:25:39.303Z,10.90
2023-03-06T19:28:05.747Z,13.02
2023-03-06T19:30:32.466Z,12.83
2023-03-06T19:32:58.904Z,13.05
2023-03-06T19:35:25.294Z,13.48
2023-03-06T19:37:51.782Z,13.08
2023-03-06T19:40:18.240Z,12.37
2023-03-06T19:42:44.654Z,12.49
2023-03-06T19:45:11.104Z,11.96
2023-03-06T19:47:37.606Z,12.17
2023-03-06T19:50:04.013Z,12.50
2023-03-06T19:52:30.417Z,12.19
2023-03-06T19:54:56.955Z,11.85
2023-03-06T19:57:23.353Z,11.79
2023-03-06T19:59:49.847Z,11.38
2023-03-06T20:02:16.265Z,10.93
2023-03-06T20:04:42.706Z,12.23
2023-03-06T20:07:09.138Z,11.55
2023-03-06T20:09:35.578Z,11.13
2023-03-06T20:12:01.916Z,11.36
2023-03-06T20:14:28.350Z,10.51
2023-03-06T20:16:54.913Z,10.75
2023-03-06T20:19:21.412Z,10.72
2023-03-06T20:21:47.772Z,11.00
2023-03-06T20:24:14.101Z,11.18
2023-03-06T20:26:40.455Z,11.14
2023-03-06T20:29:07.019Z,10.89
2023-03-06T20:31:33.484Z,11.09
2023-03-06T20:33:59.934Z,11.42
2023-03-06T20:36:26.327Z,11.82
2023-03-06T20:38:52.737Z,11.08
2023-03-06T20:41:19.225Z,10.48
2023-03-06T20:43:45.586Z,10.50
2023-03-06T20:46:12.035Z,10.53
2023-03-06T20:48:38.552Z,10.50
2023-03-06T20:51:06.407Z,10.39
2023-03-06T20:53:32.745Z,10.43
2023-03-06T20:55:59.291Z,10.77
2023-03-06T20:58:25.846Z,10.57
2023-03-06T21:00:52.213Z,10.26
2023-03-06T21:03:18.600Z,10.33
2023-03-06T21:05:45.009Z,10.58
2023-03-06T21:08:11.396Z,12.67
2023-03-06T21:10:37.802Z,18.45
2023-03-06T21:13:04.227Z,21.14
2023-03-06T21:15:30.587Z,15.38
2023-03-06T21:17:56.953Z,11.63
2023-03-06T21:20:23.415Z,10.74
2023-03-06T21:22:49.790Z,10.58
2023-03-06T21:25:16.190Z,11.17
2023-03-06T21:27:42.669Z,11.20
2023-03-06T21:30:09.096Z,11.75
2023-03-06T21:32:35.592Z,11.54
2023-03-06T21:35:04.732Z,11.16
2023-03-06T21:37:31.135Z,11.27
2023-03-06T21:39:57.557Z,11.24
2023-03-06T21:42:26.647Z,11.45
2023-03-06T21:44:53.187Z,11.38
2023-03-06T21:47:19.658Z,11.28
2023-03-06T21:49:49.037Z,11.51
2023-03-06T21:52:15.411Z,11.03
2023-03-06T21:54:41.776Z,11.00
2023-03-06T21:57:08.314Z,12.02
2023-03-06T21:59:34.665Z,11.93
2023-03-06T22:02:01.076Z,11.75
2023-03-06T22:04:27.445Z,11.94
2023-03-06T22:06:53.850Z,12.29
2023-03-06T22:09:20.196Z,12.80
2023-03-06T22:11:46.559Z,12.60
2023-03-06T22:14:13.102Z,12.36
2023-03-06T22:16:39.511Z,11.98
2023-03-06T22:19:05.879Z,12.12
2023-03-06T22:21:32.236Z,12.18
2023-03-06T22:23:58.668Z,12.86
2023-03-06T22:26:25.074Z,12.72
2023-03-06T22:28:51.450Z,11.99
2023-03-06T22:31:17.900Z,12.25
2023-03-06T22:33:44.402Z,12.32
2023-03-06T22:36:10.792Z,12.21
2023-03-06T22:38:37.190Z,12.92
2023-03-06T22:41:03.600Z,12.67
2023-03-06T22:43:29.956Z,12.10
2023-03-06T22:45:56.366Z,12.43
2023-03-06T22:48:22.761Z,12.51
2023-03-06T22:50:49.123Z,12.39
2023-03-06T22:53:15.462Z,12.29
2023-03-06T22:55:41.809Z,12.31
2023-03-06T22:58:10.300Z,12.23
2023-03-06T23:00:36.668Z,12.57
2023-03-06T23:03:03.158Z,12.66
2023-03-06T23:05:29.632Z,12.99
2023-03-06T23:07:55.974Z,12.35
2023-03-06T23:10:22.345Z,12.42
2023-03-06T23:12:48.697Z,12.71
2023-03-06T23:15:15.074Z,13.44
2023-03-06T23:17:41.402Z,12.56
2023-03-06T23:20:07.734Z,13.00
2023-03-06T23:22:34.115Z,13.22
2023-03-06T23:25:00.485Z,13.08
2023-03-06T23:27:26.888Z,13.42
2023-03-06T23:29:55.519Z,13.61
2023-03-06T23:32:21.963Z,13.78
2023-03-06T23:34:48.440Z,13.83
2023-03-06T23:37:14.866Z,14.16
2023-03-06T23:39:41.241Z,14.23
2023-03-06T23:42:07.585Z,14.73
2023-03-06T23:44:34.195Z,14.66
2023-03-06T23:47:00.610Z,14.80
2023-03-06T23:49:26.957Z,14.60
2023-03-06T23:51:53.312Z,14.57
2023-03-06T23:54:19.700Z,15.58
2023-03-06T23:56:46.044Z,21.22
2023-03-06T23:59:12.456Z,22.39
